Time;durP1;ratioP1;P1;durP2;ratioP2;P2;SDS_P1;SDS_P2;PMS_P1;PMS_P2;Temp;Humidity;BMP_temperature;BMP_pressure;BME280_temperature;BME280_humidity;BME280_pressure;Samples;Min_cycle;Max_cycle;Signal;HPM_P1;HPM_P2
2023/10/22 00:01:35;;;;;;;;;;;;;;;14.42;nan;100562.56;4973444;28;19972;-86
2023/10/22 00:04:01;;;;;;;;;;;;;;;14.40;nan;100572.03;4969191;28;19922;-88
2023/10/22 00:06:26;;;;;;;;;;;;;;;14.37;nan;100572.59;4969192;28;19972;-88
2023/10/22 00:08:54;;;;;;;;;;;;;;;14.33;nan;100580.38;4969089;28;19973;-86
2023/10/22 00:11:24;;;;;;;;;;;;;;;14.34;nan;100576.59;4970610;28;19957;-87
2023/10/22 00:13:50;;;;;;;;;;;;;;;14.41;nan;100576.31;4967687;28;20429;-87
2023/10/22 00:16:17;;;;;;;;;;;;;;;14.48;nan;100590.31;4967412;28;20021;-87
2023/10/22 00:18:45;;;;;;;;;;;;;;;14.54;nan;100588.41;4967476;28;20542;-87
2023/10/22 00:21:11;;;;;;;;;;;;;;;14.58;nan;100592.19;4969083;28;19922;-86
2023/10/22 00:23:40;;;;;;;;;;;;;;;14.62;nan;100598.63;4970758;28;19922;-88
2023/10/22 00:26:05;;;;;;;;;;;;;;;14.67;nan;100596.69;4965838;28;19929;-87
2023/10/22 00:28:32;;;;;;;;;;;;;;;14.68;nan;100592.91;4967340;28;19965;-87
2023/10/22 00:31:00;;;;;;;;;;;;;;;14.67;nan;100594.00;4967735;28;19945;-87
2023/10/22 00:33:30;;;;;;;;;;;;;;;14.68;nan;100590.22;4968490;28;20379;-88
2023/10/22 00:35:59;;;;;;;;;;;;;;;14.70;nan;100590.72;4973435;28;19926;-87
2023/10/22 00:38:25;;;;;;;;;;;;;;;14.73;nan;100590.19;4971008;28;19976;-87
2023/10/22 00:40:52;;;;;;;;;;;;;;;14.78;nan;100582.06;4971105;28;19930;-86
2023/10/22 00:43:17;;;;;;;;;;;;;;;14.79;nan;100580.97;4972306;28;19922;-87
2023/10/22 00:45:44;;;;;;;;;;;;;;;14.82;nan;100579.63;4973595;28;19922;-87
2023/10/22 00:48:12;;;;;;;;;;;;;;;14.87;nan;100587.66;4971122;28;19922;-87
2023/10/22 00:50:45;;;;;;;;;;;;;;;14.89;nan;100585.50;4972145;28;20298;-87
2023/10/22 00:53:14;;;;;;;;;;;;;;;14.90;nan;100589.00;4971685;28;19926;-87
2023/10/22 00:55:40;;;;;;;;;;;;;;;14.90;nan;100583.59;4960181;28;20361;-87
2023/10/22 00:58:07;;;;;;;;;;;;;;;14.89;nan;100572.00;4972517;28;19929;-87
2023/10/22 01:00:36;;;;;;;;;;;;;;;14.91;nan;100579.84;4969824;28;19929;-86
2023/10/22 01:03:02;;;;;;;;;;;;;;;14.94;nan;100585.47;4969908;28;19922;-88
2023/10/22 01:05:28;;;;;;;;;;;;;;;14.98;nan;100593.81;4971750;28;20020;-87
2023/10/22 01:07:58;;;;;;;;;;;;;;;15.03;nan;100593.75;4974076;28;20028;-87
2023/10/22 01:10:24;;;;;;;;;;;;;;;15.05;nan;100588.88;4975113;28;19975;-88
2023/10/22 01:12:50;;;;;;;;;;;;;;;15.05;nan;100589.69;4973340;28;19921;-87
2023/10/22 01:15:17;;;;;;;;;;;;;;;15.04;nan;100588.09;4971041;28;19960;-87
2023/10/22 01:17:43;;;;;;;;;;;;;;;15.02;nan;100598.34;4972407;28;20287;-87
2023/10/22 01:20:10;;;;;;;;;;;;;;;14.96;nan;100598.69;4973847;28;19926;-87
2023/10/22 01:22:36;;;;;;;;;;;;;;;14.95;nan;100589.78;4971155;28;19922;-87
2023/10/22 01:25:05;;;;;;;;;;;;;;;14.93;nan;100583.06;4972091;28;19928;-87
2023/10/22 01:27:34;;;;;;;;;;;;;;;14.89;nan;100581.97;4973180;28;20454;-86
2023/10/22 01:30:00;;;;;;;;;;;;;;;14.85;nan;100581.75;4975433;28;19922;-87
2023/10/22 01:32:30;;;;;;;;;;;;;;;14.80;nan;100574.50;4969895;28;19926;-87
2023/10/22 01:34:57;;;;;;;;;;;;;;;14.76;nan;100576.16;4970002;28;19921;-87
2023/10/22 01:37:24;;;;;;;;;;;;;;;14.71;nan;100578.84;4972009;28;19922;-87
2023/10/22 01:39:50;;;;;;;;;;;;;;;14.67;nan;100568.91;4972246;28;19957;-87
2023/10/22 01:42:16;;;;;;;;;;;;;;;14.67;nan;100564.34;4972050;28;20450;-86
2023/10/22 01:44:43;;;;;;;;;;;;;;;14.67;nan;100566.22;4969590;28;19933;-87
2023/10/22 01:47:14;;;;;;;;;;;;;;;14.64;nan;100562.19;4972477;28;19925;-87
2023/10/22 01:49:48;;;;;;;;;;;;;;;14.62;nan;100564.38;4972441;28;19961;-86
2023/10/22 01:52:14;;;;;;;;;;;;;;;14.64;nan;100558.69;4970590;28;20398;-87
2023/10/22 01:54:40;;;;;;;;;;;;;;;14.65;nan;100563.81;4973075;28;19928;-87
2023/10/22 01:57:07;;;;;;;;;;;;;;;14.64;nan;100567.59;4968992;28;19922;-87
2023/10/22 01:59:34;;;;;;;;;;;;;;;14.62;nan;100571.66;4969563;28;20125;-87
2023/10/22 02:02:01;;;;;;;;;;;;;;;14.56;nan;100568.19;4973424;28;19921;-87
2023/10/22 02:04:34;;;;;;;;;;;;;;;14.51;nan;100569.00;4971263;28;20341;-87
2023/10/22 02:06:59;;;;;;;;;;;;;;;14.46;nan;100568.25;4970455;28;19930;-88
2023/10/22 02:09:30;;;;;;;;;;;;;;;14.43;nan;100575.00;4969175;28;20519;-87
2023/10/22 02:11:57;;;;;;;;;;;;;;;14.40;nan;100570.13;4967134;28;19925;-87
2023/10/22 02:14:24;;;;;;;;;;;;;;;14.40;nan;100578.22;4971660;28;19922;-87
2023/10/22 02:16:51;;;;;;;;;;;;;;;14.45;nan;100574.72;4970483;28;19960;-87
2023/10/22 02:19:18;;;;;;;;;;;;;;;14.52;nan;100577.91;4972950;28;19922;-87
2023/10/22 02:21:45;;;;;;;;;;;;;;;14.58;nan;100579.50;4971024;28;19972;-87
2023/10/22 02:24:11;;;;;;;;;;;;;;;14.63;nan;100579.47;4970489;28;20001;-87
2023/10/22 02:26:39;;;;;;;;;;;;;;;14.62;nan;100580.56;4969395;28;20352;-87
2023/10/22 02:29:09;;;;;;;;;;;;;;;14.57;nan;100571.69;4972233;28;19921;-87
2023/10/22 02:31:38;;;;;;;;;;;;;;;14.55;nan;100574.66;4971071;28;19926;-86
2023/10/22 02:34:05;;;;;;;;;;;;;;;14.53;nan;100579.50;4967517;28;19936;-87
2023/10/22 02:36:33;;;;;;;;;;;;;;;14.50;nan;100580.06;4969695;28;20356;-87
2023/10/22 02:39:03;;;;;;;;;;;;;;;14.50;nan;100574.69;4970299;28;19933;-87
2023/10/22 02:41:32;;;;;;;;;;;;;;;14.47;nan;100584.13;4970123;28;20758;-87
2023/10/22 02:43:59;;;;;;;;;;;;;;;14.47;nan;100589.53;4968259;28;19929;-87
2023/10/22 02:46:26;;;;;;;;;;;;;;;14.49;nan;100591.94;4973160;28;19956;-87
2023/10/22 02:48:53;;;;;;;;;;;;;;;14.49;nan;100589.25;4971987;28;19965;-86
2023/10/22 02:51:23;;;;;;;;;;;;;;;14.48;nan;100593.81;4970353;28;20079;-87
2023/10/22 02:53:50;;;;;;;;;;;;;;;14.47;nan;100594.09;4967996;28;19922;-86
2023/10/22 02:56:39;;;;;;;;;;;;;;;14.45;nan;100610.56;4970662;28;19928;-88
2023/10/22 02:59:07;;;;;;;;;;;;;;;14.47;nan;100607.59;4969421;28;19930;-86
2023/10/22 03:01:36;;;;;;;;;;;;;;;14.50;nan;100607.03;4970002;28;19929;-87
2023/10/22 03:04:01;;;;;;;;;;;;;;;14.55;nan;100609.72;4970089;28;20509;-86
2023/10/22 03:06:30;;;;;;;;;;;;;;;14.56;nan;100599.75;4966077;28;19930;-87
2023/10/22 03:08:56;;;;;;;;;;;;;;;14.55;nan;100608.91;4970309;28;20054;-87
2023/10/22 03:11:22;;;;;;;;;;;;;;;14.55;nan;100598.94;4971300;28;20417;-87
2023/10/22 03:13:53;;;;;;;;;;;;;;;14.56;nan;100600.53;4968713;28;19921;-87
2023/10/22 03:16:33;;;;;;;;;;;;;;;14.60;nan;100611.56;4967974;28;19925;-88
2023/10/22 03:19:03;;;;;;;;;;;;;;;14.64;nan;100609.94;4971649;28;19934;-87
2023/10/22 03:21:35;;;;;;;;;;;;;;;14.62;nan;100604.81;4967304;28;19936;-87
2023/10/22 03:24:03;;;;;;;;;;;;;;;14.65;nan;100604.25;4972082;28;20013;-87
2023/10/22 03:26:32;;;;;;;;;;;;;;;14.68;nan;100603.69;4972480;28;20239;-87
2023/10/22 03:29:00;;;;;;;;;;;;;;;14.72;nan;100610.16;4975395;28;20478;-87
2023/10/22 03:31:27;;;;;;;;;;;;;;;14.76;nan;100613.91;4974336;28;19926;-87
2023/10/22 03:33:53;;;;;;;;;;;;;;;14.81;nan;100615.75;4970117;28;19933;-86
2023/10/22 03:36:19;;;;;;;;;;;;;;;14.84;nan;100619.78;4972769;28;20334;-87
2023/10/22 03:38:46;;;;;;;;;;;;;;;14.81;nan;100613.88;4969711;28;20377;-87
2023/10/22 03:41:16;;;;;;;;;;;;;;;14.81;nan;100613.88;4971055;28;19928;-87
2023/10/22 03:43:46;;;;;;;;;;;;;;;14.83;nan;100613.59;4968149;28;19972;-86
2023/10/22 03:46:12;;;;;;;;;;;;;;;14.89;nan;100617.06;4971026;28;19961;-87
2023/10/22 03:48:37;;;;;;;;;;;;;;;14.91;nan;100613.00;4971980;28;19974;-87
2023/10/22 03:51:08;;;;;;;;;;;;;;;14.94;nan;100614.34;4968694;28;19926;-87
2023/10/22 03:53:35;;;;;;;;;;;;;;;14.99;nan;100615.09;4971123;28;20449;-87
2023/10/22 03:56:01;;;;;;;;;;;;;;;15.05;nan;100624.75;4970430;28;19981;-87
2023/10/22 03:58:34;;;;;;;;;;;;;;;15.06;nan;100625.56;4971449;28;20049;-88
2023/10/22 04:01:04;;;;;;;;;;;;;;;15.02;nan;100636.13;4973047;28;19922;-87
2023/10/22 04:03:30;;;;;;;;;;;;;;;15.02;nan;100646.91;4971829;28;19918;-87
2023/10/22 04:06:15;;;;;;;;;;;;;;;15.02;nan;100638.00;4972522;28;20397;-87
2023/10/22 04:08:41;;;;;;;;;;;;;;;15.05;nan;100645.53;4970340;28;20398;-87
2023/10/22 04:11:07;;;;;;;;;;;;;;;15.12;nan;100640.66;4961523;28;19929;-87
2023/10/22 04:13:33;;;;;;;;;;;;;;;15.19;nan;100645.72;4970180;28;19940;-87
2023/10/22 04:16:01;;;;;;;;;;;;;;;15.22;nan;100639.75;4969977;28;19933;-87
2023/10/22 04:18:28;;;;;;;;;;;;;;;15.26;nan;100652.44;4969399;28;19970;-87
2023/10/22 04:20:54;;;;;;;;;;;;;;;15.28;nan;100644.88;4967272;28;19926;-88
2023/10/22 04:23:24;;;;;;;;;;;;;;;15.30;nan;100652.69;4969707;28;19925;-87
2023/10/22 04:25:50;;;;;;;;;;;;;;;15.32;nan;100645.91;4969096;28;21095;-86
2023/10/22 04:28:17;;;;;;;;;;;;;;;15.34;nan;100654.53;4969530;28;19922;-87
2023/10/22 04:30:47;;;;;;;;;;;;;;;15.35;nan;100649.94;4969041;28;19926;-87
2023/10/22 04:33:26;;;;;;;;;;;;;;;15.33;nan;100647.50;4970183;28;19984;-87
2023/10/22 04:35:52;;;;;;;;;;;;;;;15.33;nan;100644.81;4970066;28;20389;-87
2023/10/22 04:38:17;;;;;;;;;;;;;;;15.32;nan;100653.19;4973584;28;19930;-87
2023/10/22 04:40:44;;;;;;;;;;;;;;;15.32;nan;100647.81;4972605;28;20161;-87
2023/10/22 04:43:12;;;;;;;;;;;;;;;15.32;nan;100639.69;4968449;28;20449;-86
2023/10/22 04:45:44;;;;;;;;;;;;;;;15.33;nan;100642.13;4970265;28;19965;-88
2023/10/22 04:48:10;;;;;;;;;;;;;;;15.36;nan;100646.94;4970391;28;20351;-88
2023/10/22 04:50:37;;;;;;;;;;;;;;;15.37;nan;100648.56;4969374;28;19933;-87
2023/10/22 04:53:03;;;;;;;;;;;;;;;15.38;nan;100654.75;4969136;28;20057;-87
2023/10/22 04:55:31;;;;;;;;;;;;;;;15.40;nan;100655.28;4970371;28;19958;-87
2023/10/22 04:58:00;;;;;;;;;;;;;;;15.43;nan;100663.63;4968189;28;19918;-87
2023/10/22 05:00:27;;;;;;;;;;;;;;;15.43;nan;100658.22;4967054;28;19957;-88
2023/10/22 05:02:53;;;;;;;;;;;;;;;15.46;nan;100662.28;4968096;28;20090;-87
2023/10/22 05:05:21;;;;;;;;;;;;;;;15.48;nan;100662.78;4971214;28;19922;-87
2023/10/22 05:07:49;;;;;;;;;;;;;;;15.48;nan;100670.88;4967642;28;19933;-86
2023/10/22 05:10:16;;;;;;;;;;;;;;;15.48;nan;100665.50;4966918;28;19973;-87
2023/10/22 05:12:55;;;;;;;;;;;;;;;15.46;nan;100664.97;4969490;28;20464;-87
2023/10/22 05:15:27;;;;;;;;;;;;;;;15.48;nan;100664.69;4967866;28;19917;-87
2023/10/22 05:17:55;;;;;;;;;;;;;;;15.47;nan;100668.47;4969790;28;19926;-87
2023/10/22 05:20:43;;;;;;;;;;;;;;;15.49;nan;100669.00;4968876;28;19929;-87
2023/10/22 05:23:09;;;;;;;;;;;;;;;15.52;nan;100671.13;4972187;28;19977;-85
2023/10/22 05:25:41;;;;;;;;;;;;;;;15.56;nan;100680.28;4976200;28;20407;-87
2023/10/22 05:28:06;;;;;;;;;;;;;;;15.58;nan;100673.50;4979831;28;20015;-87
2023/10/22 05:30:33;;;;;;;;;;;;;;;15.61;nan;100682.94;4967554;28;20494;-87
2023/10/22 05:33:01;;;;;;;;;;;;;;;15.64;nan;100687.81;4973939;28;19918;-87
2023/10/22 05:35:28;;;;;;;;;;;;;;;15.65;nan;100684.81;4975100;28;20160;-87
2023/10/22 05:37:59;;;;;;;;;;;;;;;15.66;nan;100680.22;4973529;28;19929;-86
2023/10/22 05:40:25;;;;;;;;;;;;;;;15.66;nan;100677.53;4978199;28;20010;-87
2023/10/22 05:42:53;;;;;;;;;;;;;;;15.66;nan;100682.94;4973132;28;19957;-87
2023/10/22 05:45:19;;;;;;;;;;;;;;;15.66;nan;100693.72;4970216;28;19961;-87
2023/10/22 05:47:48;;;;;;;;;;;;;;;15.66;nan;100697.25;4972359;28;19957;-86
2023/10/22 05:50:18;;;;;;;;;;;;;;;15.68;nan;100703.16;4969052;28;19958;-85
2023/10/22 05:52:45;;;;;;;;;;;;;;;15.71;nan;100701.78;4970505;28;19918;-86
2023/10/22 05:55:14;;;;;;;;;;;;;;;15.74;nan;100706.63;4971971;28;20271;-85
2023/10/22 05:57:40;;;;;;;;;;;;;;;15.77;nan;100705.25;4968405;28;19933;-86
2023/10/22 06:00:07;;;;;;;;;;;;;;;15.79;nan;100709.25;4970689;28;20357;-86
2023/10/22 06:02:36;;;;;;;;;;;;;;;15.84;nan;100717.34;4966926;28;19930;-86
2023/10/22 06:05:04;;;;;;;;;;;;;;;15.89;nan;100713.78;4972238;28;19922;-86
2023/10/22 06:07:30;;;;;;;;;;;;;;;15.93;nan;100707.53;4967610;28;20317;-86
2023/10/22 06:09:57;;;;;;;;;;;;;;;15.99;nan;100711.00;4959645;28;19922;-86
2023/10/22 06:12:23;;;;;;;;;;;;;;;16.04;nan;100716.34;4973245;28;19926;-86
2023/10/22 06:15:03;;;;;;;;;;;;;;;16.08;nan;100722.00;4968925;28;19925;-86
2023/10/22 06:17:32;;;;;;;;;;;;;;;16.13;nan;100716.53;4969242;28;19921;-85
2023/10/22 06:20:10;;;;;;;;;;;;;;;16.18;nan;100717.31;4968976;28;19980;-85
2023/10/22 06:22:37;;;;;;;;;;;;;;;16.23;nan;100713.72;4970982;28;19918;-86
2023/10/22 06:25:04;;;;;;;;;;;;;;;16.28;nan;100711.78;4974989;28;19955;-86
2023/10/22 06:27:34;;;;;;;;;;;;;;;16.31;nan;100716.59;4965421;28;19933;-86
2023/10/22 06:30:04;;;;;;;;;;;;;;;16.33;nan;100719.81;4975324;28;20404;-85
2023/10/22 06:32:32;;;;;;;;;;;;;;;16.38;nan;100716.28;4974858;28;20185;-86
2023/10/22 06:35:05;;;;;;;;;;;;;;;16.45;nan;100721.31;4968280;28;19926;-86
2023/10/22 06:37:30;;;;;;;;;;;;;;;16.50;nan;100719.38;4976951;28;20048;-85
2023/10/22 06:40:01;;;;;;;;;;;;;;;16.55;nan;100719.31;4971851;28;19925;-85
2023/10/22 06:42:34;;;;;;;;;;;;;;;16.61;nan;100711.94;4970916;28;19925;-86
2023/10/22 06:45:05;;;;;;;;;;;;;;;16.64;nan;100714.06;4968903;28;19957;-85
2023/10/22 06:47:46;;;;;;;;;;;;;;;16.69;nan;100719.44;4970635;28;20449;-86
2023/10/22 06:50:20;;;;;;;;;;;;;;;16.74;nan;100713.19;4965835;28;19922;-86
2023/10/22 06:52:47;;;;;;;;;;;;;;;16.78;nan;100717.72;4971521;28;19929;-86
2023/10/22 06:55:12;;;;;;;;;;;;;;;16.84;nan;100719.25;4968131;28;19930;-86
2023/10/22 06:57:41;;;;;;;;;;;;;;;16.89;nan;100713.00;4972248;28;19945;-86
2023/10/22 07:00:10;;;;;;;;;;;;;;;16.94;nan;100712.13;4971293;28;19933;-86
2023/10/22 07:02:35;;;;;;;;;;;;;;;16.99;nan;100704.72;4984794;28;20275;-86
2023/10/22 07:05:02;;;;;;;;;;;;;;;17.02;nan;100706.84;4968042;28;19965;-85
2023/10/22 07:07:28;;;;;;;;;;;;;;;17.05;nan;100708.16;4966409;28;20049;-86
2023/10/22 07:09:54;;;;;;;;;;;;;;;17.08;nan;100708.41;4966827;28;19926;-84
2023/10/22 07:12:21;;;;;;;;;;;;;;;17.14;nan;100704.50;4971516;28;19926;-85
2023/10/22 07:14:50;;;;;;;;;;;;;;;17.18;nan;100702.81;4973448;28;19926;-86
2023/10/22 07:17:15;;;;;;;;;;;;;;;17.24;nan;100705.47;4967994;28;19980;-86
2023/10/22 07:19:46;;;;;;;;;;;;;;;17.29;nan;100708.91;4973954;28;19933;-86
2023/10/22 07:22:13;;;;;;;;;;;;;;;17.34;nan;100705.31;4969036;28;19921;-86
2023/10/22 07:24:41;;;;;;;;;;;;;;;17.38;nan;100701.72;4975732;28;19976;-86
2023/10/22 07:27:11;;;;;;;;;;;;;;;17.43;nan;100708.97;4968721;28;19926;-86
2023/10/22 07:29:40;;;;;;;;;;;;;;;17.48;nan;100706.19;4970774;28;19922;-86
2023/10/22 07:32:06;;;;;;;;;;;;;;;17.57;nan;100709.00;4974487;28;20407;-86
2023/10/22 07:34:33;;;;;;;;;;;;;;;17.62;nan;100708.94;4971529;28;19976;-86
2023/10/22 07:36:59;;;;;;;;;;;;;;;17.68;nan;100710.50;4969208;28;19918;-86
2023/10/22 07:39:27;;;;;;;;;;;;;;;17.73;nan;100719.34;4967683;28;19926;-86
2023/10/22 07:41:55;;;;;;;;;;;;;;;17.76;nan;100716.03;4969883;28;20294;-86
2023/10/22 07:44:23;;;;;;;;;;;;;;;17.81;nan;100715.97;4972087;28;20381;-86
2023/10/22 07:46:52;;;;;;;;;;;;;;;17.86;nan;100717.78;4970002;28;19922;-86
2023/10/22 07:49:20;;;;;;;;;;;;;;;17.89;nan;100719.88;4973130;28;19922;-86
2023/10/22 07:51:46;;;;;;;;;;;;;;;17.93;nan;100725.50;4966928;28;20405;-86
2023/10/22 07:54:17;;;;;;;;;;;;;;;17.98;nan;100725.44;4967749;28;19936;-85
2023/10/22 07:56:43;;;;;;;;;;;;;;;18.02;nan;100721.03;4968774;28;20010;-86
2023/10/22 07:59:19;;;;;;;;;;;;;;;18.05;nan;100723.94;4968709;28;19945;-86
2023/10/22 08:01:47;;;;;;;;;;;;;;;18.03;nan;100717.22;4969162;28;19926;-86
2023/10/22 08:04:17;;;;;;;;;;;;;;;18.04;nan;100718.81;4967616;28;19993;-86
2023/10/22 08:06:49;;;;;;;;;;;;;;;18.05;nan;100715.00;4972236;28;19984;-86
2023/10/22 08:09:18;;;;;;;;;;;;;;;18.09;nan;100721.44;4968724;28;19976;-86
2023/10/22 08:11:46;;;;;;;;;;;;;;;18.18;nan;100716.13;4972019;28;19925;-86
2023/10/22 08:14:13;;;;;;;;;;;;;;;18.27;nan;100722.47;4970406;28;19922;-86
2023/10/22 08:16:40;;;;;;;;;;;;;;;18.33;nan;100727.50;4974728;28;19922;-86
2023/10/22 08:19:12;;;;;;;;;;;;;;;18.36;nan;100726.91;4974460;28;19922;-86
2023/10/22 08:21:46;;;;;;;;;;;;;;;18.42;nan;100727.59;4966293;28;20405;-86
2023/10/22 08:24:13;;;;;;;;;;;;;;;18.51;nan;100736.66;4966076;28;20145;-89
2023/10/22 08:26:40;;;;;;;;;;;;;;;18.61;nan;100735.66;4966262;28;19922;-87
2023/10/22 08:29:10;;;;;;;;;;;;;;;18.69;nan;100729.56;4967748;28;20387;-86
2023/10/22 08:31:39;;;;;;;;;;;;;;;18.74;nan;100726.72;4972864;28;19930;-87
2023/10/22 08:34:04;;;;;;;;;;;;;;;18.80;nan;100736.38;4969099;28;20009;-86
2023/10/22 08:36:30;;;;;;;;;;;;;;;18.87;nan;100735.97;4965842;28;19932;-86
2023/10/22 08:38:58;;;;;;;;;;;;;;;18.90;nan;100730.75;4962860;28;20135;-86
2023/10/22 08:41:31;;;;;;;;;;;;;;;18.96;nan;100726.78;4967044;28;19926;-86
2023/10/22 08:44:02;;;;;;;;;;;;;;;19.07;nan;100726.59;4973661;28;19918;-85
2023/10/22 08:46:38;;;;;;;;;;;;;;;19.21;nan;100730.88;4972130;28;19961;-86
2023/10/22 08:49:09;;;;;;;;;;;;;;;19.31;nan;100724.41;4966933;28;19957;-87
2023/10/22 08:51:38;;;;;;;;;;;;;;;19.41;nan;100724.19;4962582;28;20464;-86
2023/10/22 08:54:05;;;;;;;;;;;;;;;19.51;nan;100723.91;4963566;28;19922;-87
2023/10/22 08:56:32;;;;;;;;;;;;;;;19.59;nan;100731.38;4972656;28;19922;-86
2023/10/22 08:59:03;;;;;;;;;;;;;;;19.65;nan;100728.53;4967534;28;20049;-86
2023/10/22 09:01:28;;;;;;;;;;;;;;;19.70;nan;100723.78;4971290;28;19957;-86
2023/10/22 09:03:56;;;;;;;;;;;;;;;19.78;nan;100722.25;4978393;28;19937;-87
2023/10/22 09:06:24;;;;;;;;;;;;;;;19.87;nan;100720.34;4967844;28;19925;-87
2023/10/22 09:08:55;;;;;;;;;;;;;;;19.96;nan;100723.94;4984806;28;19995;-87
2023/10/22 09:11:24;;;;;;;;;;;;;;;20.04;nan;100716.94;4973567;28;19926;-87
2023/10/22 09:13:52;;;;;;;;;;;;;;;20.12;nan;100725.16;4962189;28;20627;-87
2023/10/22 09:16:33;;;;;;;;;;;;;;;20.23;nan;100726.47;4967591;28;19929;-87
2023/10/22 09:19:03;;;;;;;;;;;;;;;20.31;nan;100730.38;4970340;28;19925;-87
2023/10/22 09:21:39;;;;;;;;;;;;;;;20.41;nan;100732.03;4971811;28;19921;-89
2023/10/22 09:24:05;;;;;;;;;;;;;;;20.49;nan;100731.28;4971779;28;19922;-88
2023/10/22 09:26:42;;;;;;;;;;;;;;;20.54;nan;100727.59;4970397;28;19922;-88
2023/10/22 09:29:12;;;;;;;;;;;;;;;20.59;nan;100733.69;4968511;28;20293;-88
2023/10/22 09:31:38;;;;;;;;;;;;;;;20.65;nan;100727.00;4978264;28;19929;-88
2023/10/22 09:34:13;;;;;;;;;;;;;;;20.71;nan;100725.72;4973175;28;19926;-87
2023/10/22 09:36:52;;;;;;;;;;;;;;;20.81;nan;100732.78;4977812;28;20444;-87
2023/10/22 09:39:37;;;;;;;;;;;;;;;20.85;nan;100733.78;4978099;28;19928;-87
2023/10/22 09:42:08;;;;;;;;;;;;;;;20.88;nan;100735.88;4975474;28;19949;-88
2023/10/22 09:44:44;;;;;;;;;;;;;;;20.94;nan;100737.31;4970048;28;19921;-88
2023/10/22 09:47:14;;;;;;;;;;;;;;;21.04;nan;100747.13;4970219;28;19930;-86
2023/10/22 09:49:54;;;;;;;;;;;;;;;21.09;nan;100747.75;4970658;28;19925;-87
2023/10/22 09:52:21;;;;;;;;;;;;;;;21.17;nan;100737.97;4976392;28;19922;-87
2023/10/22 09:54:50;;;;;;;;;;;;;;;21.22;nan;100751.47;4972339;28;19918;-86
2023/10/22 09:57:19;;;;;;;;;;;;;;;21.28;nan;100741.22;4976939;28;19922;-87
2023/10/22 09:59:49;;;;;;;;;;;;;;;21.32;nan;100743.00;4971706;28;19980;-88
2023/10/22 10:02:16;;;;;;;;;;;;;;;21.40;nan;100735.94;4963679;28;20016;-86
2023/10/22 10:04:43;;;;;;;;;;;;;;;21.46;nan;100736.59;4971679;28;19956;-87
2023/10/22 10:07:10;;;;;;;;;;;;;;;21.54;nan;100741.22;4968570;28;20001;-87
2023/10/22 10:09:38;;;;;;;;;;;;;;;21.58;nan;100734.03;4970520;28;19960;-88
2023/10/22 10:12:16;;;;;;;;;;;;;;;21.58;nan;100734.81;4968895;28;19980;-88
2023/10/22 10:14:48;;;;;;;;;;;;;;;21.62;nan;100734.97;4974264;28;19991;-87
2023/10/22 10:17:17;;;;;;;;;;;;;;;21.55;nan;100740.94;4968197;28;19933;-86
2023/10/22 10:19:47;;;;;;;;;;;;;;;21.53;nan;100742.34;4968526;28;19926;-88
2023/10/22 10:22:31;;;;;;;;;;;;;;;21.58;nan;100734.81;4968576;28;20036;-87
2023/10/22 10:25:16;;;;;;;;;;;;;;;21.63;nan;100740.09;4960892;28;19929;-88
2023/10/22 10:27:50;;;;;;;;;;;;;;;21.70;nan;100734.16;4972060;28;19976;-87
2023/10/22 10:30:20;;;;;;;;;;;;;;;21.74;nan;100731.59;4974095;28;19929;-89
2023/10/22 10:32:48;;;;;;;;;;;;;;;21.79;nan;100731.44;4969824;28;20002;-88
2023/10/22 10:35:18;;;;;;;;;;;;;;;21.87;nan;100725.94;4968112;28;20405;-89
2023/10/22 10:38:16;;;;;;;;;;;;;;;21.95;nan;100729.78;4968037;28;19955;-87
2023/10/22 10:40:43;;;;;;;;;;;;;;;21.97;nan;100731.06;4971392;28;19922;-87
2023/10/22 10:43:10;;;;;;;;;;;;;;;22.05;nan;100726.72;4966822;28;19918;-88
2023/10/22 10:45:40;;;;;;;;;;;;;;;22.13;nan;100728.66;4965063;28;19922;-87
2023/10/22 10:48:28;;;;;;;;;;;;;;;22.19;nan;100726.53;4971205;28;20038;-88
2023/10/22 10:51:16;;;;;;;;;;;;;;;22.20;nan;100728.13;4969380;28;19921;-88
2023/10/22 10:54:00;;;;;;;;;;;;;;;22.19;nan;100732.00;4970685;28;20381;-90
2023/10/22 10:56:46;;;;;;;;;;;;;;;22.14;nan;100724.78;4971497;28;20453;-90
2023/10/22 10:59:24;;;;;;;;;;;;;;;22.15;nan;100722.88;4969324;28;19930;-89
2023/10/22 11:02:12;;;;;;;;;;;;;;;22.18;nan;100723.00;4970379;28;19926;-90
2023/10/22 11:04:47;;;;;;;;;;;;;;;22.20;nan;100717.22;4970356;28;19980;-90
2023/10/22 11:07:18;;;;;;;;;;;;;;;22.20;nan;100720.75;4973099;28;19922;-89
2023/10/22 11:09:45;;;;;;;;;;;;;;;22.22;nan;100725.88;4977668;28;19933;-89
2023/10/22 11:12:15;;;;;;;;;;;;;;;22.26;nan;100730.38;4977856;28;19930;-89
2023/10/22 11:14:43;;;;;;;;;;;;;;;22.27;nan;100721.06;4978751;28;20016;-89
2023/10/22 11:17:13;;;;;;;;;;;;;;;22.28;nan;100722.66;4973668;28;20010;-89
2023/10/22 11:19:42;;;;;;;;;;;;;;;22.35;nan;100722.13;4973825;28;20465;-90
2023/10/22 11:22:12;;;;;;;;;;;;;;;22.39;nan;100719.56;4971275;28;20055;-89
2023/10/22 11:24:39;;;;;;;;;;;;;;;22.40;nan;100719.22;4974786;28;20016;-90
2023/10/22 11:27:06;;;;;;;;;;;;;;;22.40;nan;100724.69;4973874;28;19922;-89
2023/10/22 11:29:45;;;;;;;;;;;;;;;22.36;nan;100726.47;4968464;28;19996;-89
2023/10/22 11:32:13;;;;;;;;;;;;;;;22.32;nan;100725.53;4969127;28;19926;-89
2023/10/22 11:34:59;;;;;;;;;;;;;;;22.30;nan;100719.59;4969395;28;20347;-89
2023/10/22 11:37:29;;;;;;;;;;;;;;;22.25;nan;100715.09;4970597;28;19929;-88
2023/10/22 11:40:00;;;;;;;;;;;;;;;22.21;nan;100729.72;4971163;28;19936;-88
2023/10/22 11:42:33;;;;;;;;;;;;;;;22.23;nan;100716.56;4968275;28;19925;-89
2023/10/22 11:45:04;;;;;;;;;;;;;;;22.27;nan;100717.53;4968761;28;19922;-90
2023/10/22 11:47:34;;;;;;;;;;;;;;;22.30;nan;100725.84;4957134;28;20256;-90
2023/10/22 11:50:02;;;;;;;;;;;;;;;22.27;nan;100715.59;4969992;28;19925;-89
2023/10/22 11:52:42;;;;;;;;;;;;;;;22.29;nan;100727.00;4969218;28;20374;-90
2023/10/22 11:55:11;;;;;;;;;;;;;;;22.28;nan;100725.38;4970467;28;20040;-89
2023/10/22 11:57:41;;;;;;;;;;;;;;;22.32;nan;100731.00;4967203;28;19941;-89
2023/10/22 12:00:09;;;;;;;;;;;;;;;22.29;nan;100718.81;4971506;28;20032;-89
2023/10/22 12:02:35;;;;;;;;;;;;;;;22.29;nan;100726.19;4967805;28;19925;-90
2023/10/22 12:05:02;;;;;;;;;;;;;;;22.32;nan;100733.72;4969727;28;19932;-89
2023/10/22 12:07:28;;;;;;;;;;;;;;;22.32;nan;100733.72;4967361;28;19957;-89
2023/10/22 12:09:55;;;;;;;;;;;;;;;22.26;nan;100724.91;4966383;28;20256;-89
2023/10/22 12:12:21;;;;;;;;;;;;;;;22.26;nan;100729.53;4964988;28;19926;-89
2023/10/22 12:14:49;;;;;;;;;;;;;;;22.28;nan;100728.13;4967906;28;19934;-89
2023/10/22 12:17:18;;;;;;;;;;;;;;;22.28;nan;100727.31;4968437;28;19977;-90
2023/10/22 12:19:45;;;;;;;;;;;;;;;22.30;nan;100738.72;4969162;28;19961;-89
2023/10/22 12:22:10;;;;;;;;;;;;;;;22.29;nan;100734.38;4968817;28;19922;-90
2023/10/22 12:24:38;;;;;;;;;;;;;;;22.25;nan;100747.06;4973505;28;19922;-90
2023/10/22 12:27:05;;;;;;;;;;;;;;;22.25;nan;100742.38;4970253;28;19925;-89
2023/10/22 12:29:35;;;;;;;;;;;;;;;22.27;nan;100744.81;4954306;28;19972;-89
2023/10/22 12:32:04;;;;;;;;;;;;;;;22.23;nan;100746.59;4970977;28;20099;-90
2023/10/22 12:34:38;;;;;;;;;;;;;;;22.24;nan;100748.19;4973832;28;20344;-90
2023/10/22 12:37:08;;;;;;;;;;;;;;;22.26;nan;100756.84;4974594;28;19944;-90
2023/10/22 12:39:33;;;;;;;;;;;;;;;22.30;nan;100749.63;4971760;28;20250;-92
2023/10/22 12:41:59;;;;;;;;;;;;;;;22.24;nan;100748.19;4974183;28;19926;-92
2023/10/22 12:44:25;;;;;;;;;;;;;;;22.25;nan;100757.97;4971060;28;19929;-91
2023/10/22 12:46:52;;;;;;;;;;;;;;;22.25;nan;100760.69;4972549;28;19961;-93
2023/10/22 12:49:23;;;;;;;;;;;;;;;22.25;nan;100768.88;4975191;28;20523;-94
2023/10/22 12:51:56;;;;;;;;;;;;;;;22.26;nan;100770.47;4976141;28;19953;-94
2023/10/22 12:54:33;;;;;;;;;;;;;;;22.23;nan;100765.69;4970942;28;19922;-96
2023/10/22 12:57:00;;;;;;;;;;;;;;;22.15;nan;100769.25;4969135;28;19921;-92
2023/10/22 12:59:29;;;;;;;;;;;;;;;22.18;nan;100774.84;4968864;28;19925;-92
2023/10/22 13:02:05;;;;;;;;;;;;;;;22.17;nan;100778.72;4969408;28;19949;-92
2023/10/22 13:04:31;;;;;;;;;;;;;;;22.17;nan;100783.38;4971571;28;19930;-92
2023/10/22 13:06:58;;;;;;;;;;;;;;;22.17;nan;100781.44;4970935;28;21398;-91
2023/10/22 13:09:32;;;;;;;;;;;;;;;22.15;nan;100770.06;4966122;28;19922;-93